createdAt,value
2022-12-08T00:01:18.450Z,2.96
2022-12-08T00:03:45.086Z,2.95
2022-12-08T00:06:33.975Z,2.94
2022-12-08T00:09:18.949Z,2.94
2022-12-08T00:11:46.845Z,2.92
2022-12-08T00:14:13.337Z,2.90
2022-12-08T00:16:40.037Z,2.90
2022-12-08T00:19:06.626Z,2.89
2022-12-08T00:21:33.267Z,2.92
2022-12-08T00:23:59.819Z,2.92
2022-12-08T00:26:26.335Z,2.94
2022-12-08T00:28:54.393Z,2.95
2022-12-08T00:31:20.944Z,2.96
2022-12-08T00:33:47.487Z,2.95
2022-12-08T00:36:14.699Z,2.94
2022-12-08T00:38:41.438Z,2.93
2022-12-08T00:41:12.074Z,2.92
2022-12-08T00:43:38.642Z,2.92
2022-12-08T00:46:06.664Z,2.89
2022-12-08T00:48:33.827Z,2.86
2022-12-08T00:51:00.328Z,2.88
2022-12-08T00:53:26.827Z,2.88
2022-12-08T00:55:53.557Z,2.89
2022-12-08T00:58:20.085Z,2.89
2022-12-08T01:00:46.600Z,2.88
2022-12-08T01:03:14.715Z,2.87
2022-12-08T01:05:41.349Z,2.83
2022-12-08T01:08:08.693Z,2.81
2022-12-08T01:10:37.119Z,2.80
2022-12-08T01:13:03.737Z,2.82
2022-12-08T01:15:30.336Z,2.85
2022-12-08T01:17:56.838Z,2.85
2022-12-08T01:20:24.830Z,2.81
2022-12-08T01:22:51.318Z,2.77
2022-12-08T01:25:18.168Z,2.72
2022-12-08T01:27:44.672Z,2.66
2022-12-08T01:30:12.099Z,2.66
2022-12-08T01:32:38.584Z,2.69
2022-12-08T01:35:05.572Z,2.73
2022-12-08T01:37:33.817Z,2.73
2022-12-08T01:40:00.310Z,2.69
2022-12-08T01:42:26.879Z,2.63
2022-12-08T01:44:55.200Z,2.61
2022-12-08T01:47:22.988Z,2.60
2022-12-08T01:49:49.586Z,2.60
2022-12-08T01:52:17.866Z,2.58
2022-12-08T01:54:49.205Z,2.59
2022-12-08T01:57:17.425Z,2.63
2022-12-08T01:59:46.722Z,2.63
2022-12-08T02:02:13.587Z,2.60
2022-12-08T02:04:40.146Z,2.56
2022-12-08T02:07:08.464Z,2.52
2022-12-08T02:09:35.380Z,2.54
2022-12-08T02:12:04.071Z,2.55
2022-12-08T02:14:30.728Z,2.55
2022-12-08T02:17:03.275Z,2.58
2022-12-08T02:19:42.517Z,2.58
2022-12-08T02:22:11.651Z,2.56
2022-12-08T02:24:40.536Z,2.56
2022-12-08T02:27:36.518Z,2.58
2022-12-08T02:30:18.596Z,2.60
2022-12-08T02:32:59.978Z,2.57
2022-12-08T02:35:30.046Z,2.56
2022-12-08T02:37:58.610Z,2.58
2022-12-08T02:40:29.060Z,2.60
2022-12-08T02:42:57.523Z,2.59
2022-12-08T02:45:26.055Z,2.55
2022-12-08T02:47:52.609Z,2.49
2022-12-08T02:50:19.189Z,2.46
2022-12-08T02:52:47.420Z,2.45
2022-12-08T02:55:26.336Z,2.47
2022-12-08T02:58:07.671Z,2.48
2022-12-08T03:00:38.876Z,2.51
2022-12-08T03:03:09.443Z,2.53
2022-12-08T03:05:51.024Z,2.52
2022-12-08T03:08:22.279Z,2.47
2022-12-08T03:10:52.435Z,2.40
2022-12-08T03:13:20.741Z,2.38
2022-12-08T03:15:49.643Z,2.40
2022-12-08T03:18:17.057Z,2.44
2022-12-08T03:20:45.201Z,2.44
2022-12-08T03:23:12.786Z,2.44
2022-12-08T03:25:43.428Z,2.45
2022-12-08T03:28:10.087Z,2.44
2022-12-08T03:30:39.262Z,2.45
2022-12-08T03:33:08.996Z,2.46
2022-12-08T03:35:37.722Z,2.46
2022-12-08T03:38:05.202Z,2.44
2022-12-08T03:40:31.886Z,2.42
2022-12-08T03:43:00.092Z,2.39
2022-12-08T03:45:26.827Z,2.39
2022-12-08T03:47:53.345Z,2.40
2022-12-08T03:50:19.855Z,2.42
2022-12-08T03:52:46.993Z,2.41
2022-12-08T03:55:13.826Z,2.41
2022-12-08T03:57:40.349Z,2.40
2022-12-08T04:00:09.896Z,2.38
2022-12-08T04:02:36.399Z,2.30
2022-12-08T04:05:02.986Z,2.24
2022-12-08T04:07:29.999Z,2.16
2022-12-08T04:09:56.486Z,2.11
2022-12-08T04:12:22.949Z,2.10
2022-12-08T04:14:49.509Z,2.09
2022-12-08T04:17:17.419Z,2.02
2022-12-08T04:19:43.917Z,1.98
2022-12-08T04:22:10.522Z,1.96
2022-12-08T04:24:37.021Z,1.95
2022-12-08T04:27:03.700Z,1.92
2022-12-08T04:29:30.302Z,1.92
2022-12-08T04:31:56.886Z,1.97
2022-12-08T04:34:24.813Z,2.01
2022-12-08T04:36:51.342Z,2.04
2022-12-08T04:39:17.842Z,2.04
2022-12-08T04:41:44.311Z,2.04
2022-12-08T04:44:10.841Z,2.06
2022-12-08T04:46:42.994Z,2.06
2022-12-08T04:49:10.037Z,2.10
2022-12-08T04:51:38.176Z,2.13
2022-12-08T04:54:04.930Z,2.19
2022-12-08T04:56:31.378Z,2.22
2022-12-08T04:58:57.857Z,2.23
2022-12-08T05:01:24.399Z,2.27
2022-12-08T05:03:50.948Z,2.29
2022-12-08T05:06:17.611Z,2.29
2022-12-08T05:08:45.778Z,2.29
2022-12-08T05:11:12.701Z,2.29
2022-12-08T05:13:39.737Z,2.31
2022-12-08T05:16:07.544Z,2.34
2022-12-08T05:18:34.805Z,2.35
2022-12-08T05:21:01.353Z,2.35
2022-12-08T05:23:27.910Z,2.32
2022-12-08T05:25:56.095Z,2.32
2022-12-08T05:31:09.665Z,2.33
2022-12-08T05:33:36.406Z,2.28
2022-12-08T05:36:02.978Z,2.23
2022-12-08T05:38:29.578Z,2.19
2022-12-08T05:40:57.433Z,2.15
2022-12-08T05:43:23.960Z,2.10
2022-12-08T05:45:50.564Z,2.03
2022-12-08T05:48:17.093Z,1.98
2022-12-08T05:50:45.867Z,1.96
2022-12-08T05:53:12.379Z,1.93
2022-12-08T05:55:38.885Z,1.91
2022-12-08T05:58:08.273Z,1.91
2022-12-08T06:00:34.897Z,1.93
2022-12-08T06:03:01.857Z,1.97
2022-12-08T06:05:28.442Z,2.03
2022-12-08T06:07:55.199Z,2.07
2022-12-08T06:10:21.766Z,2.12
2022-12-08T06:12:48.230Z,2.14
2022-12-08T06:15:16.276Z,2.13
2022-12-08T06:17:42.882Z,2.11
2022-12-08T06:20:09.817Z,2.12
2022-12-08T06:22:36.562Z,2.15
2022-12-08T06:25:06.052Z,2.22
2022-12-08T06:27:35.233Z,2.26
2022-12-08T06:30:02.249Z,2.29
2022-12-08T06:32:30.645Z,2.30
2022-12-08T06:34:57.226Z,2.33
2022-12-08T06:37:23.733Z,2.35
2022-12-08T06:39:50.480Z,2.37
2022-12-08T06:42:35.644Z,2.39
2022-12-08T06:45:02.167Z,2.38
2022-12-08T06:47:30.069Z,2.33
2022-12-08T06:49:56.548Z,2.26
2022-12-08T06:52:23.012Z,2.20
2022-12-08T06:54:49.527Z,2.16
2022-12-08T06:57:16.265Z,2.14
2022-12-08T06:59:42.832Z,2.12
2022-12-08T07:02:09.740Z,2.12
2022-12-08T07:04:37.853Z,2.11
2022-12-08T07:07:04.324Z,2.13
2022-12-08T07:09:30.918Z,2.13
2022-12-08T07:11:57.423Z,2.11
2022-12-08T07:14:24.868Z,2.10
2022-12-08T07:16:52.402Z,2.08
2022-12-08T07:19:19.161Z,2.10
2022-12-08T07:21:47.597Z,2.10
2022-12-08T07:24:14.156Z,2.09
2022-12-08T07:26:40.698Z,2.06
2022-12-08T07:29:07.431Z,2.04
2022-12-08T07:31:34.237Z,2.04
2022-12-08T07:34:00.867Z,2.08
2022-12-08T07:36:27.641Z,2.11
2022-12-08T07:38:55.581Z,2.14
2022-12-08T07:41:23.589Z,2.16
2022-12-08T07:43:50.651Z,2.18
2022-12-08T07:46:18.614Z,2.23
2022-12-08T07:48:46.204Z,2.38
2022-12-08T07:51:13.706Z,2.57
2022-12-08T07:53:42.690Z,2.79
2022-12-08T07:56:12.214Z,2.99
2022-12-08T07:58:39.126Z,3.14
2022-12-08T08:01:06.037Z,3.27
2022-12-08T08:03:33.201Z,3.42
2022-12-08T08:06:02.306Z,3.64
2022-12-08T08:08:28.862Z,3.86
2022-12-08T08:10:55.386Z,4.10
2022-12-08T08:13:23.278Z,4.38
2022-12-08T08:15:49.856Z,4.66
2022-12-08T08:18:16.433Z,4.92
2022-12-08T08:20:42.912Z,5.22
2022-12-08T08:23:09.456Z,5.51
2022-12-08T08:25:36.047Z,5.77
2022-12-08T08:28:02.913Z,5.96
2022-12-08T08:30:30.742Z,6.12
2022-12-08T08:32:57.226Z,6.13
2022-12-08T08:35:23.717Z,6.13
2022-12-08T08:37:50.298Z,6.20
2022-12-08T08:40:17.238Z,6.26
2022-12-08T08:42:43.754Z,6.41
2022-12-08T08:45:10.724Z,6.63
2022-12-08T08:47:38.976Z,6.83
2022-12-08T08:50:06.436Z,7.00
2022-12-08T08:52:33.198Z,7.14
2022-12-08T08:54:59.771Z,7.31
2022-12-08T08:57:26.628Z,7.48
2022-12-08T08:59:53.330Z,7.72
2022-12-08T09:02:20.262Z,7.93
2022-12-08T09:04:48.386Z,7.99
2022-12-08T09:07:15.667Z,7.94
2022-12-08T09:09:42.313Z,7.86
2022-12-08T09:12:08.950Z,7.77
2022-12-08T09:14:35.516Z,7.61
2022-12-08T09:17:02.031Z,7.62
2022-12-08T09:19:28.579Z,7.79
2022-12-08T09:21:56.559Z,7.96
2022-12-08T09:24:23.211Z,8.16
2022-12-08T09:26:49.819Z,8.35
2022-12-08T09:29:17.601Z,8.52
2022-12-08T09:31:44.253Z,8.63
2022-12-08T09:34:11.551Z,8.79
2022-12-08T09:36:38.087Z,8.87
2022-12-08T09:39:06.579Z,8.98
2022-12-08T09:41:40.402Z,9.12
2022-12-08T09:44:21.780Z,9.28
2022-12-08T09:46:51.160Z,9.43
2022-12-08T09:49:19.111Z,9.58
2022-12-08T09:51:46.147Z,9.69
2022-12-08T09:54:18.056Z,9.68
2022-12-08T09:56:44.573Z,9.67
2022-12-08T09:59:17.064Z,9.56
2022-12-08T10:01:43.726Z,9.43
2022-12-08T10:04:17.414Z,9.43
2022-12-08T10:06:46.715Z,9.49
2022-12-08T10:09:23.173Z,9.48
2022-12-08T10:11:53.281Z,9.64
2022-12-08T10:14:23.164Z,9.74
2022-12-08T10:16:52.058Z,9.94
2022-12-08T10:19:20.076Z,10.08
2022-12-08T10:21:46.852Z,10.13
2022-12-08T10:24:22.556Z,10.23
2022-12-08T10:26:49.159Z,10.33
2022-12-08T10:29:15.926Z,10.54
2022-12-08T10:31:42.513Z,10.72
2022-12-08T10:34:17.309Z,10.68
2022-12-08T10:36:47.561Z,10.81
2022-12-08T10:39:32.299Z,10.88
2022-12-08T10:42:07.936Z,10.92
2022-12-08T10:44:38.371Z,10.52
2022-12-08T10:47:11.646Z,10.04
2022-12-08T10:49:38.667Z,9.72
2022-12-08T10:52:08.918Z,9.65
2022-12-08T10:54:41.952Z,10.05
2022-12-08T10:57:19.842Z,10.37
2022-12-08T10:59:46.469Z,10.30
2022-12-08T11:02:18.424Z,9.96
2022-12-08T11:04:45.148Z,9.65
2022-12-08T11:07:11.793Z,9.43
2022-12-08T11:09:40.943Z,9.29
2022-12-08T11:12:08.622Z,9.07
2022-12-08T11:14:46.170Z,9.14
2022-12-08T11:17:14.783Z,9.15
2022-12-08T11:19:43.134Z,9.05
2022-12-08T11:22:20.716Z,8.89
2022-12-08T11:24:56.494Z,8.75
2022-12-08T11:27:23.039Z,8.72
2022-12-08T11:29:49.574Z,8.64
2022-12-08T11:32:16.108Z,8.42
2022-12-08T11:34:45.201Z,8.36
2022-12-08T11:37:17.608Z,8.88
2022-12-08T11:39:47.150Z,10.31
2022-12-08T11:42:16.794Z,11.54
2022-12-08T11:44:46.695Z,12.40
2022-12-08T11:47:15.266Z,13.17
2022-12-08T11:49:42.067Z,13.00
2022-12-08T11:52:17.422Z,12.38
2022-12-08T11:54:47.786Z,11.77
2022-12-08T11:57:16.615Z,11.37
2022-12-08T11:59:46.088Z,11.44
2022-12-08T12:02:14.878Z,11.85
2022-12-08T12:04:44.512Z,12.45
2022-12-08T12:07:33.247Z,13.08
2022-12-08T12:10:14.888Z,13.11
2022-12-08T12:12:51.172Z,12.49
2022-12-08T12:15:25.775Z,11.90
2022-12-08T12:17:53.646Z,11.26
2022-12-08T12:20:23.050Z,10.86
2022-12-08T12:22:51.655Z,11.19
2022-12-08T12:25:19.439Z,11.62
2022-12-08T12:27:49.387Z,12.08
2022-12-08T12:30:19.493Z,12.89
2022-12-08T12:32:48.249Z,13.05
2022-12-08T12:35:16.408Z,13.56
2022-12-08T12:37:43.115Z,14.08
2022-12-08T12:40:16.152Z,13.98
2022-12-08T12:42:43.833Z,13.47
2022-12-08T12:45:23.365Z,13.03
2022-12-08T12:47:55.980Z,13.11
2022-12-08T12:50:41.681Z,13.47
2022-12-08T12:53:36.142Z,13.88
2022-12-08T12:56:04.445Z,13.87
2022-12-08T12:58:38.137Z,13.73
2022-12-08T13:01:28.638Z,13.30
2022-12-08T13:04:03.316Z,12.60
2022-12-08T13:06:33.733Z,11.82
2022-12-08T13:09:00.555Z,11.21
2022-12-08T13:11:28.966Z,10.62
2022-12-08T13:13:56.205Z,10.14
2022-12-08T13:16:24.483Z,9.77
2022-12-08T13:18:52.460Z,9.41
2022-12-08T13:21:22.107Z,9.10
2022-12-08T13:23:49.330Z,8.81
2022-12-08T13:26:17.783Z,8.57
2022-12-08T13:29:06.966Z,8.38
2022-12-08T13:31:42.561Z,8.16
2022-12-08T13:34:16.628Z,7.97
2022-12-08T13:36:47.818Z,7.81
2022-12-08T13:39:19.526Z,7.66
2022-12-08T13:41:49.407Z,7.53
2022-12-08T13:58:28.538Z,6.76
2022-12-08T14:00:57.672Z,6.67
2022-12-08T14:03:27.651Z,6.59
2022-12-08T14:09:02.581Z,6.43
2022-12-08T14:11:34.494Z,6.35
2022-12-08T14:14:02.455Z,6.30
2022-12-08T14:16:32.669Z,6.25
2022-12-08T14:19:05.536Z,6.21
2022-12-08T14:21:36.008Z,6.15
2022-12-08T14:24:03.359Z,6.11
2022-12-08T14:26:32.809Z,6.06
2022-12-08T14:28:59.409Z,6.02
2022-12-08T14:31:27.243Z,5.97
2022-12-08T14:33:56.498Z,5.91
2022-12-08T14:36:24.766Z,5.85
2022-12-08T14:38:54.608Z,5.79
2022-12-08T14:41:26.102Z,5.76
2022-12-08T14:43:58.865Z,5.74
2022-12-08T14:46:25.581Z,5.68
2022-12-08T14:48:53.597Z,5.59
2022-12-08T14:51:23.706Z,5.49
2022-12-08T14:53:55.381Z,5.44
2022-12-08T14:56:23.085Z,5.36
2022-12-08T14:58:51.049Z,5.30
2022-12-08T15:01:21.052Z,5.26
2022-12-08T15:03:51.127Z,5.20
2022-12-08T15:06:20.254Z,5.14
2022-12-08T15:08:55.854Z,5.06
2022-12-08T15:11:40.362Z,4.96
2022-12-08T15:14:22.113Z,4.92
2022-12-08T15:16:48.779Z,4.89
2022-12-08T15:19:17.479Z,4.86
2022-12-08T15:21:45.014Z,4.82
2022-12-08T15:24:13.710Z,4.75
2022-12-08T15:26:43.818Z,4.71
2022-12-08T15:29:11.026Z,4.66
2022-12-08T15:31:37.964Z,4.58
2022-12-08T15:34:04.563Z,4.51
2022-12-08T15:36:31.087Z,4.40
2022-12-08T15:38:57.590Z,4.32
2022-12-08T15:41:25.507Z,4.20
2022-12-08T15:43:52.156Z,4.11
2022-12-08T15:46:18.721Z,4.04
2022-12-08T15:48:45.357Z,3.98
2022-12-08T15:51:11.966Z,3.94
2022-12-08T15:53:38.463Z,3.88
2022-12-08T15:58:56.498Z,3.76
2022-12-08T16:01:24.213Z,3.71
2022-12-08T16:07:19.531Z,3.58
2022-12-08T16:09:27.960Z,3.49
2022-12-08T16:12:13.853Z,3.41
2022-12-08T16:17:31.003Z,3.35
2022-12-08T16:19:57.975Z,3.30
2022-12-08T16:25:19.971Z,3.11
2022-12-08T16:30:36.517Z,2.96
2022-12-08T16:33:03.683Z,2.91
2022-12-08T16:35:30.670Z,2.81
2022-12-08T16:37:57.390Z,2.70
2022-12-08T16:40:23.944Z,2.63
2022-12-08T16:42:50.590Z,2.56
2022-12-08T16:45:18.294Z,2.49
2022-12-08T16:47:46.838Z,2.44
2022-12-08T16:50:15.821Z,2.38
2022-12-08T16:52:42.731Z,2.30
2022-12-08T16:55:10.246Z,2.23
2022-12-08T16:57:36.993Z,2.14
2022-12-08T17:00:05.779Z,2.07
2022-12-08T17:02:32.468Z,2.02
2022-12-08T17:05:00.527Z,1.97
2022-12-08T17:07:27.427Z,1.94
2022-12-08T17:09:54.082Z,1.86
2022-12-08T17:12:20.792Z,1.80
2022-12-08T17:14:47.313Z,1.73
2022-12-08T17:17:14.135Z,1.71
2022-12-08T17:19:40.863Z,1.70
2022-12-08T17:22:08.751Z,1.73
2022-12-08T17:24:35.291Z,1.75
2022-12-08T17:27:06.301Z,1.73
2022-12-08T17:29:33.550Z,1.71
2022-12-08T17:32:00.368Z,1.69
2022-12-08T17:34:26.946Z,1.70
2022-12-08T17:36:53.507Z,1.72
2022-12-08T17:39:21.497Z,1.69
2022-12-08T17:41:48.104Z,1.67
2022-12-08T17:44:16.213Z,1.61
2022-12-08T17:46:48.983Z,1.53
2022-12-08T17:49:19.814Z,1.50
2022-12-08T17:51:47.502Z,1.49
2022-12-08T17:54:14.183Z,1.48
2022-12-08T17:56:42.030Z,1.44
2022-12-08T17:59:08.976Z,1.39
2022-12-08T18:01:35.602Z,1.34
2022-12-08T18:04:03.099Z,1.30
2022-12-08T18:06:31.383Z,1.28
2022-12-08T18:08:58.715Z,1.26
2022-12-08T18:11:25.812Z,1.24
2022-12-08T18:13:54.049Z,1.24
2022-12-08T18:16:21.609Z,1.22
2022-12-08T18:18:48.337Z,1.22
2022-12-08T18:21:21.437Z,1.24
2022-12-08T18:23:49.955Z,1.21
2022-12-08T18:26:16.918Z,1.18
2022-12-08T18:28:43.461Z,1.17
2022-12-08T18:31:12.770Z,1.16
2022-12-08T18:33:40.506Z,1.13
2022-12-08T18:36:08.274Z,1.07
2022-12-08T18:38:34.785Z,1.01
2022-12-08T18:41:03.912Z,0.99
2022-12-08T18:43:30.492Z,1.01
2022-12-08T18:46:00.388Z,0.98
2022-12-08T18:48:28.598Z,0.92
2022-12-08T18:50:55.159Z,0.84
2022-12-08T18:53:21.676Z,0.76
2022-12-08T18:55:50.900Z,0.72
2022-12-08T18:58:17.532Z,0.69
2022-12-08T19:00:44.654Z,0.68
2022-12-08T19:03:11.464Z,0.67
2022-12-08T19:05:39.534Z,0.64
2022-12-08T19:08:06.740Z,0.60
2022-12-08T19:10:34.540Z,0.57
2022-12-08T19:13:01.263Z,0.50
2022-12-08T19:15:27.772Z,0.41
2022-12-08T19:17:54.385Z,0.34
2022-12-08T19:20:20.962Z,0.30
2022-12-08T19:22:49.027Z,0.27
2022-12-08T19:25:15.640Z,0.26
2022-12-08T19:27:42.284Z,0.24
2022-12-08T19:30:09.965Z,0.19
2022-12-08T19:32:36.625Z,0.14
2022-12-08T19:35:07.408Z,0.09
2022-12-08T19:37:34.338Z,0.04
2022-12-08T19:40:20.653Z,0.02
2022-12-08T19:43:06.011Z,0.02
2022-12-08T19:45:35.213Z,0.03
2022-12-08T19:48:01.884Z,0.03
2022-12-08T19:50:37.804Z,0.04
2022-12-08T19:53:05.175Z,0.02
2022-12-08T19:55:33.345Z,-0.01
2022-12-08T19:58:01.875Z,0.00
2022-12-08T20:00:29.253Z,0.01
2022-12-08T20:02:55.980Z,0.02
2022-12-08T20:05:22.753Z,-0.05
2022-12-08T20:07:49.618Z,-0.11
2022-12-08T20:10:17.723Z,-0.17
2022-12-08T20:12:45.683Z,-0.23
2022-12-08T20:15:12.286Z,-0.26
2022-12-08T20:17:38.894Z,-0.28
2022-12-08T20:20:07.670Z,-0.26
2022-12-08T20:22:34.724Z,-0.27
2022-12-08T20:25:01.334Z,-0.27
2022-12-08T20:27:28.995Z,-0.26
2022-12-08T20:29:56.904Z,-0.25
2022-12-08T20:32:23.705Z,-0.27
2022-12-08T20:34:50.289Z,-0.32
2022-12-08T20:37:17.053Z,-0.36
2022-12-08T20:39:43.714Z,-0.41
2022-12-08T20:42:12.267Z,-0.43
2022-12-08T20:44:43.418Z,-0.49
2022-12-08T20:47:12.320Z,-0.53
2022-12-08T20:49:38.996Z,-0.53
2022-12-08T20:52:05.656Z,-0.51
2022-12-08T20:54:32.462Z,-0.46
2022-12-08T20:56:59.294Z,-0.46
2022-12-08T20:59:26.751Z,-0.50
2022-12-08T21:01:53.659Z,-0.55
2022-12-08T21:04:23.245Z,-0.60
2022-12-08T21:06:50.290Z,-0.61
2022-12-08T21:09:17.102Z,-0.60
2022-12-08T21:11:43.913Z,-0.62
2022-12-08T21:14:10.835Z,-0.62
2022-12-08T21:16:37.524Z,-0.67
2022-12-08T21:19:04.923Z,-0.67
2022-12-08T21:21:32.983Z,-0.69
2022-12-08T21:23:59.714Z,-0.67
2022-12-08T21:26:26.647Z,-0.65
2022-12-08T21:28:57.907Z,-0.65
2022-12-08T21:31:26.669Z,-0.57
2022-12-08T21:33:55.165Z,-0.49
2022-12-08T21:36:22.177Z,-0.45
2022-12-08T21:38:50.698Z,-0.38
2022-12-08T21:41:37.282Z,-0.31
2022-12-08T21:44:04.807Z,-0.32
2022-12-08T21:46:31.619Z,-0.33
2022-12-08T21:48:58.422Z,-0.32
2022-12-08T21:51:25.180Z,-0.29
2022-12-08T21:53:53.228Z,-0.27
2022-12-08T21:56:19.771Z,-0.24
2022-12-08T21:58:46.229Z,-0.19
2022-12-08T22:01:13.900Z,-0.17
2022-12-08T22:03:41.062Z,-0.16
2022-12-08T22:06:08.568Z,-0.19
2022-12-08T22:08:35.869Z,-0.18
2022-12-08T22:11:04.191Z,-0.18
2022-12-08T22:13:33.340Z,-0.16
2022-12-08T22:16:01.072Z,-0.12
2022-12-08T22:18:27.699Z,-0.09
2022-12-08T22:20:54.696Z,-0.12
2022-12-08T22:23:21.709Z,-0.14
2022-12-08T22:25:55.734Z,-0.17
2022-12-08T22:28:23.997Z,-0.15
2022-12-08T22:30:50.651Z,-0.10
2022-12-08T22:33:17.493Z,-0.03
2022-12-08T22:35:44.177Z,0.03
2022-12-08T22:38:10.804Z,0.08
2022-12-08T22:40:39.806Z,0.15
2022-12-08T22:43:06.704Z,0.20
2022-12-08T22:45:35.096Z,0.26
2022-12-08T22:48:01.800Z,0.34
2022-12-08T22:50:28.441Z,0.36
2022-12-08T22:52:55.088Z,0.37
2022-12-08T22:55:21.875Z,0.42
2022-12-08T22:57:48.403Z,0.46
2022-12-08T23:00:15.199Z,0.46
2022-12-08T23:02:43.152Z,0.47
2022-12-08T23:05:10.516Z,0.51
2022-12-08T23:07:37.624Z,0.51
2022-12-08T23:10:07.156Z,0.49
2022-12-08T23:12:33.993Z,0.48
2022-12-08T23:15:00.834Z,0.49
2022-12-08T23:17:27.395Z,0.49
2022-12-08T23:19:55.525Z,0.47
2022-12-08T23:22:22.173Z,0.51
2022-12-08T23:24:48.696Z,0.54
2022-12-08T23:27:15.329Z,0.58
2022-12-08T23:29:41.802Z,0.63
2022-12-08T23:32:08.445Z,0.62
2022-12-08T23:34:35.016Z,0.60
2022-12-08T23:37:03.077Z,0.62
2022-12-08T23:39:29.770Z,0.67
2022-12-08T23:41:56.425Z,0.70
2022-12-08T23:44:22.953Z,0.70
2022-12-08T23:46:49.636Z,0.71
2022-12-08T23:49:16.475Z,0.71
2022-12-08T23:51:43.013Z,0.73
2022-12-08T23:54:10.817Z,0.77
2022-12-08T23:56:37.466Z,0.80
2022-12-08T23:59:04.187Z,0.84
